.
WxDataArchive / Data Records for 2011-10-26
2011-10-25 October 2011 2011-10-27

Data Records for Wednesday, 26 October 2011

Time	Temp	Chill	HIndex	Humid	Dewpt	 Wind 	HiWind	WindDir	Rain 	Barom 
-----	----	-----	------	-----	-----	------	------	-------	-----	----- 
00:00	55.9	55.9	55.9	78	49.1	0	1	248	0.00	29.788 
00:05	55.6	55.6	55.6	79	49.2	0	0	---	0.00	29.788 
00:10	55.4	55.4	55.4	79	49.0	0	0	---	0.00	29.788 
00:15	55.4	55.4	55.4	79	49.0	0	3	248	0.00	29.783 
00:20	55.4	55.4	55.4	78	48.7	0	1	248	0.00	29.783 
00:25	55.7	55.7	55.7	77	48.6	0	2	248	0.00	29.783 
00:30	56.0	56.0	56.0	74	47.8	0	2	248	0.00	29.777 
00:35	56.5	56.5	56.5	72	47.6	0	1	248	0.00	29.777 
00:40	57.0	57.0	57.0	72	48.1	0	1	248	0.00	29.777 
00:45	57.5	57.5	57.5	70	47.8	0	1	248	0.00	29.795 
00:50	57.8	57.8	57.8	70	48.1	0	1	248	0.00	29.795 
00:55	57.6	57.6	57.6	73	49.0	0	3	292	0.03	29.795 
01:00	56.6	56.6	56.6	77	49.5	0	1	292	0.00	29.815 
01:05	55.9	55.9	55.9	80	49.8	0	1	292	0.00	29.815 
01:10	55.6	55.6	55.6	82	50.2	0	1	292	0.00	29.815 
01:15	55.4	55.4	55.4	84	50.6	0	1	292	0.03	29.816 
01:20	55.1	55.1	55.1	84	50.4	0	1	292	0.01	29.816 
01:25	55.0	55.0	55.0	85	50.6	0	1	292	0.00	29.816 
01:30	54.8	54.8	54.8	87	51.0	0	1	292	0.02	29.829 
01:35	54.7	54.7	54.7	88	51.2	0	0	---	0.03	29.829 
01:40	54.5	54.5	54.5	88	51.0	0	1	292	0.02	29.829 
01:45	54.7	54.7	54.7	89	51.5	1	4	292	0.00	29.811 
01:50	54.8	54.8	54.8	89	51.6	0	1	292	0.00	29.811 
01:55	54.8	54.8	54.8	89	51.6	0	0	---	0.00	29.811 
02:00	54.7	54.7	54.7	89	51.5	0	0	---	0.00	29.812 
02:05	54.7	54.7	54.7	90	51.8	0	0	---	0.00	29.812 
02:10	54.5	54.5	54.5	90	51.6	0	0	---	0.00	29.812 
02:15	54.5	54.5	54.5	91	51.9	0	0	---	0.00	29.783 
02:20	54.5	54.5	54.5	91	51.9	0	0	---	0.00	29.783 
02:25	54.5	54.5	54.5	91	51.9	0	1	292	0.00	29.783 
02:30	54.5	54.5	54.5	91	51.9	0	0	---	0.00	29.784 
02:35	54.5	54.5	54.5	92	52.2	0	1	292	0.01	29.784 
02:40	54.5	54.5	54.5	92	52.2	0	3	248	0.02	29.784 
02:45	54.5	54.5	54.5	92	52.2	0	2	248	0.07	29.804 
02:50	54.5	54.5	54.5	92	52.2	1	3	248	0.06	29.804 
02:55	54.7	54.7	54.7	92	52.4	0	2	248	0.05	29.804 
03:00	54.7	54.7	54.7	93	52.7	0	3	248	0.09	29.784 
03:05	55.0	55.0	55.0	93	53.0	0	2	248	0.02	29.784 
03:10	55.3	55.3	55.3	93	53.3	0	2	248	0.01	29.784 
03:15	55.6	55.6	55.6	93	53.6	0	1	248	0.00	29.771 
03:20	55.7	55.7	55.7	93	53.7	0	1	248	0.00	29.771 
03:25	55.7	55.7	55.7	93	53.7	0	0	---	0.00	29.771 
03:30	55.7	55.7	55.7	93	53.7	0	1	248	0.00	29.763 
03:35	55.4	55.4	55.4	93	53.4	0	2	248	0.00	29.763 
03:40	55.1	55.1	55.1	93	53.1	0	2	248	0.00	29.763 
03:45	55.0	55.0	55.0	93	53.0	0	1	248	0.00	29.759 
03:50	54.8	54.8	54.8	93	52.8	0	1	248	0.00	29.759 
03:55	54.7	54.7	54.7	93	52.7	0	1	248	0.00	29.759 
04:00	54.7	54.7	54.7	93	52.7	0	1	248	0.00	29.760 
04:05	54.5	54.5	54.5	93	52.5	0	1	248	0.00	29.760 
04:10	54.5	54.5	54.5	93	52.5	0	0	---	0.00	29.760 
04:15	54.5	54.5	54.5	93	52.5	0	0	---	0.00	29.752 
04:20	54.5	54.5	54.5	93	52.5	0	0	---	0.00	29.752 
04:25	54.5	54.5	54.5	93	52.5	0	0	---	0.00	29.752 
04:30	54.5	54.5	54.5	93	52.5	0	0	---	0.00	29.750 
04:35	54.5	54.5	54.5	93	52.5	0	0	---	0.00	29.750 
04:40	54.5	54.5	54.5	93	52.5	0	0	---	0.00	29.750 
04:45	54.5	54.5	54.5	93	52.5	0	0	---	0.00	29.748 
04:50	54.4	54.4	54.4	93	52.4	0	0	---	0.00	29.748 
04:55	54.4	54.4	54.4	93	52.4	0	0	---	0.00	29.748 
05:00	54.4	54.4	54.4	93	52.4	0	0	---	0.00	29.746 
05:05	54.2	54.2	54.2	93	52.2	0	0	---	0.00	29.746 
05:10	54.2	54.2	54.2	93	52.2	0	0	---	0.00	29.746 
05:15	54.2	54.2	54.2	93	52.2	0	0	---	0.00	29.743 
05:20	54.2	54.2	54.2	93	52.2	0	0	---	0.00	29.743 
05:25	54.2	54.2	54.2	93	52.2	0	0	---	0.00	29.743 
05:30	54.1	54.1	54.1	93	52.1	0	0	---	0.00	29.737 
05:35	54.1	54.1	54.1	93	52.1	0	1	248	0.00	29.737 
05:40	53.9	53.9	53.9	93	51.9	0	2	248	0.00	29.737 
05:45	53.9	53.9	53.9	93	51.9	0	1	248	0.00	29.739 
05:50	53.9	53.9	53.9	93	51.9	0	1	248	0.00	29.739 
05:55	53.9	53.9	53.9	93	51.9	0	2	248	0.00	29.739 
06:00	53.9	53.9	53.9	93	51.9	0	2	248	0.00	29.744 
06:05	54.1	54.1	54.1	93	52.1	0	1	248	0.00	29.744 
06:10	54.1	54.1	54.1	92	51.8	0	1	248	0.00	29.744 
06:15	54.4	54.4	54.4	92	52.1	0	1	248	0.00	29.749 
06:20	54.5	54.5	54.5	92	52.2	0	1	248	0.00	29.749 
06:25	54.7	54.7	54.7	91	52.1	0	1	248	0.00	29.749 
06:30	54.7	54.7	54.7	91	52.1	0	1	248	0.00	29.749 
06:35	55.0	55.0	55.0	91	52.4	0	1	248	0.00	29.749 
06:40	55.1	55.1	55.1	90	52.2	0	1	248	0.00	29.749 
06:45	55.3	55.3	55.3	89	52.1	0	1	248	0.00	29.751 
06:50	55.6	55.6	55.6	88	52.1	0	2	248	0.00	29.751 
06:55	55.7	55.7	55.7	88	52.2	0	2	248	0.00	29.751 
07:00	55.9	55.9	55.9	87	52.1	0	1	248	0.00	29.753 
07:05	56.2	56.2	56.2	87	52.4	0	1	248	0.00	29.753 
07:10	56.3	56.3	56.3	86	52.2	0	1	248	0.00	29.753 
07:15	56.5	56.5	56.5	86	52.4	0	2	248	0.00	29.756 
07:20	56.6	56.6	56.6	85	52.1	0	1	248	0.00	29.756 
07:25	56.9	56.9	56.9	84	52.1	0	2	248	0.00	29.756 
07:30	57.0	57.0	57.0	83	51.9	0	2	248	0.00	29.756 
07:35	57.2	57.2	57.2	83	52.1	0	1	248	0.00	29.756 
07:40	57.3	57.3	57.3	83	52.2	0	1	248	0.00	29.756 
07:45	57.3	57.3	57.3	82	51.9	0	1	248	0.00	29.755 
07:50	57.3	57.3	57.3	82	51.9	0	1	248	0.00	29.755 
07:55	57.5	57.5	57.5	82	52.0	0	1	248	0.00	29.755 
08:00	57.5	57.5	57.5	81	51.7	0	1	248	0.00	29.753 
08:05	57.5	57.5	57.5	81	51.7	0	2	248	0.00	29.753 
08:10	57.5	57.5	57.5	81	51.7	0	1	248	0.00	29.753 
08:15	57.5	57.5	57.5	81	51.7	0	2	248	0.00	29.757 
08:20	57.5	57.5	57.5	81	51.7	0	1	248	0.00	29.757 
08:25	57.3	57.3	57.3	81	51.5	0	2	248	0.00	29.757 
08:30	57.5	57.5	57.5	81	51.7	0	1	248	0.00	29.768 
08:35	57.5	57.5	57.5	81	51.7	0	1	248	0.00	29.768 
08:40	57.6	57.6	57.6	81	51.8	0	2	248	0.00	29.768 
08:45	57.6	57.6	57.6	80	51.5	0	1	248	0.00	29.765 
08:50	57.8	57.8	57.8	80	51.7	0	3	248	0.00	29.765 
08:55	58.0	58.0	58.0	80	51.9	0	2	248	0.00	29.765 
09:00	58.0	58.0	58.0	80	51.9	0	2	248	0.00	29.773 
09:05	58.1	58.1	58.1	79	51.6	0	2	248	0.00	29.773 
09:10	58.3	58.3	58.3	79	51.8	0	2	248	0.00	29.773 
09:15	58.6	58.6	58.6	78	51.8	0	1	248	0.00	29.776 
09:20	58.7	58.7	58.7	78	51.9	0	2	248	0.00	29.776 
09:25	58.9	58.9	58.9	78	52.0	0	2	248	0.00	29.776 
09:30	59.0	59.0	59.0	77	51.8	0	2	248	0.00	29.781 
09:35	59.3	59.3	59.3	76	51.7	1	3	248	0.00	29.781 
09:40	59.6	59.6	59.6	75	51.7	1	3	248	0.00	29.781 
09:45	59.9	59.9	59.9	75	52.0	1	3	248	0.00	29.781 
09:50	59.9	59.9	59.9	75	52.0	0	2	248	0.00	29.781 
09:55	59.9	59.9	59.9	74	51.6	1	2	248	0.00	29.781 
10:00	60.1	60.1	60.1	74	51.8	1	2	248	0.00	29.782 
10:05	60.2	60.2	60.2	74	51.9	1	3	248	0.00	29.782 
10:10	60.4	60.4	60.4	74	52.1	1	2	248	0.00	29.782 
10:15	60.5	60.5	60.5	73	51.8	1	2	248	0.00	29.773 
10:20	60.9	60.9	60.9	73	52.2	1	3	248	0.00	29.773 
10:25	61.3	61.3	61.3	72	52.2	1	3	248	0.00	29.773 
10:30	61.6	61.6	61.6	72	52.5	0	2	248	0.00	29.768 
10:35	62.1	62.1	62.1	72	53.0	0	3	248	0.00	29.768 
10:40	62.3	62.3	62.3	70	52.4	1	4	248	0.00	29.768 
10:45	62.4	62.4	62.4	69	52.1	2	4	315	0.00	29.771 
10:50	62.6	62.6	62.6	69	52.3	1	2	315	0.00	29.771 
10:55	62.7	62.7	62.7	69	52.4	2	5	270	0.00	29.771 
11:00	62.9	62.9	62.9	68	52.2	1	3	270	0.00	29.767 
11:05	63.1	63.1	63.1	68	52.4	1	3	270	0.00	29.767 
11:10	63.1	63.1	63.1	68	52.4	1	4	292	0.00	29.767 
11:15	63.2	63.2	63.2	68	52.5	2	5	292	0.00	29.766 
11:20	63.4	63.4	63.4	68	52.6	2	3	292	0.00	29.766 
11:25	63.5	63.5	63.5	69	53.1	1	4	292	0.00	29.766 
11:30	63.7	63.7	63.7	69	53.3	2	4	292	0.00	29.772 
11:35	63.7	63.7	63.7	69	53.3	2	5	338	0.00	29.772 
11:40	63.7	63.7	63.7	69	53.3	2	5	270	0.00	29.772 
11:45	63.9	63.9	63.9	69	53.5	2	5	270	0.00	29.779 
11:50	63.9	63.9	63.9	70	53.9	2	3	292	0.00	29.779 
11:55	63.9	63.9	63.9	71	54.3	1	4	292	0.00	29.779 
12:00	63.7	63.7	63.7	71	54.1	1	3	292	0.00	29.775 
12:05	63.4	63.4	63.4	71	53.8	1	3	292	0.00	29.775 
12:10	63.2	63.2	63.2	72	54.0	1	3	292	0.00	29.775 
12:15	63.2	63.2	63.2	72	54.0	2	5	270	0.00	29.784 
12:20	63.1	63.1	63.1	71	53.5	2	5	270	0.00	29.784 
12:25	62.7	62.7	62.7	73	53.9	2	4	315	0.00	29.784 
12:30	62.6	62.6	62.6	73	53.8	2	3	270	0.00	29.794 
12:35	62.3	62.3	62.3	74	53.9	1	5	315	0.00	29.794 
12:40	61.3	61.3	61.3	75	53.3	2	6	315	0.00	29.794 
12:45	60.2	60.2	60.2	77	53.0	2	6	315	0.00	29.800 
12:50	59.3	59.3	59.3	78	52.4	3	6	315	0.00	29.800 
12:55	58.6	58.6	58.6	80	52.4	2	5	315	0.00	29.800 
13:00	58.1	58.1	58.1	81	52.3	2	4	315	0.00	29.799 
13:05	57.8	57.8	57.8	82	52.3	1	4	270	0.00	29.799 
13:10	57.6	57.6	57.6	82	52.1	2	3	315	0.00	29.799 
13:15	57.3	57.3	57.3	83	52.2	1	3	315	0.00	29.807 
13:20	57.0	57.0	57.0	84	52.2	2	4	338	0.00	29.807 
13:25	56.9	56.9	56.9	84	52.1	0	3	292	0.00	29.807 
13:30	56.7	56.7	56.7	84	51.9	1	4	292	0.00	29.805 
13:35	56.7	56.7	56.7	85	52.2	0	2	292	0.00	29.805 
13:40	56.7	56.7	56.7	85	52.2	0	3	292	0.00	29.805 
13:45	56.9	56.9	56.9	85	52.4	0	1	292	0.00	29.805 
13:50	56.9	56.9	56.9	85	52.4	0	1	292	0.00	29.805 
13:55	56.9	56.9	56.9	85	52.4	0	1	292	0.00	29.805 
14:00	56.9	56.9	56.9	85	52.4	1	4	292	0.00	29.799 
14:05	56.6	56.6	56.6	85	52.1	0	3	292	0.00	29.799 
14:10	56.6	56.6	56.6	86	52.5	0	2	292	0.00	29.799 
14:15	56.6	56.6	56.6	86	52.5	0	1	292	0.00	29.795 
14:20	56.5	56.5	56.5	86	52.4	0	3	292	0.00	29.795 
14:25	56.3	56.3	56.3	86	52.2	0	2	292	0.00	29.795 
14:30	56.0	56.0	56.0	86	51.9	0	2	292	0.00	29.796 
14:35	56.0	56.0	56.0	86	51.9	0	1	292	0.00	29.796 
14:40	56.2	56.2	56.2	86	52.1	0	3	292	0.00	29.796 
14:45	56.0	56.0	56.0	86	51.9	0	1	292	0.00	29.792 
14:50	56.0	56.0	56.0	85	51.6	1	3	292	0.00	29.792 
14:55	55.9	55.9	55.9	85	51.5	0	1	292	0.00	29.792 
15:00	55.6	55.6	55.6	85	51.2	0	1	292	0.00	29.795 
15:05	55.4	55.4	55.4	85	51.0	1	4	292	0.00	29.795 
15:10	55.3	55.3	55.3	86	51.2	1	3	292	0.00	29.795 
15:15	55.0	55.0	55.0	86	50.9	0	3	292	0.00	29.807 
15:20	54.8	54.8	54.8	86	50.7	0	2	292	0.00	29.807 
15:25	54.5	54.5	54.5	86	50.4	1	3	292	0.00	29.807 
15:30	54.5	54.5	54.5	86	50.4	1	3	292	0.00	29.804 
15:35	54.4	54.4	54.4	86	50.3	1	4	292	0.00	29.804 
15:40	54.4	54.4	54.4	86	50.3	1	4	315	0.00	29.804 
15:45	54.2	54.2	54.2	86	50.1	2	4	292	0.00	29.809 
15:50	53.9	53.9	53.9	86	49.8	1	3	292	0.00	29.809 
15:55	53.8	53.8	53.8	87	50.0	0	2	292	0.00	29.809 
16:00	53.6	53.6	53.6	87	49.8	0	1	315	0.00	29.799 
16:05	53.6	53.6	53.6	88	50.1	0	2	315	0.00	29.799 
16:10	53.5	53.5	53.5	88	50.0	0	2	315	0.00	29.799 
16:15	53.2	53.2	53.2	87	49.4	1	4	315	0.00	29.812 
16:20	53.1	53.1	53.1	88	49.6	0	3	315	0.00	29.812 
16:25	52.9	52.9	52.9	88	49.4	1	3	315	0.00	29.812 
16:30	52.6	52.6	52.6	88	49.1	1	4	315	0.00	29.811 
16:35	52.3	52.3	52.3	88	48.9	1	4	0	0.00	29.811 
16:40	52.0	52.0	52.0	88	48.6	0	2	315	0.00	29.811 
16:45	52.0	52.0	52.0	88	48.6	1	4	315	0.00	29.807 
16:50	51.9	51.9	51.9	88	48.5	0	3	338	0.00	29.807 
16:55	51.9	51.9	51.9	88	48.5	0	1	338	0.00	29.807 
17:00	51.9	51.9	51.9	88	48.5	0	1	338	0.00	29.809 
17:05	51.7	51.7	51.7	88	48.3	0	2	338	0.00	29.809 
17:10	51.7	51.7	51.7	88	48.3	0	2	338	0.00	29.809 
17:15	51.7	51.7	51.7	88	48.3	1	3	338	0.00	29.811 
17:20	51.7	51.7	51.7	88	48.3	1	4	315	0.00	29.811 
17:25	51.6	51.6	51.6	87	47.9	1	3	338	0.00	29.811 
17:30	51.6	51.6	51.6	87	47.9	0	3	315	0.00	29.815 
17:35	51.6	51.6	51.6	87	47.9	0	1	315	0.00	29.815 
17:40	51.6	51.6	51.6	87	47.9	0	3	315	0.00	29.815 
17:45	51.6	51.6	51.6	87	47.9	0	2	315	0.00	29.813 
17:50	51.7	51.7	51.7	87	48.0	0	2	315	0.00	29.813 
17:55	51.6	51.6	51.6	87	47.9	0	1	315	0.00	29.813 
18:00	51.7	51.7	51.7	87	48.0	0	1	315	0.00	29.800 
18:05	51.7	51.7	51.7	87	48.0	0	1	315	0.00	29.800 
18:10	51.7	51.7	51.7	87	48.0	0	3	315	0.00	29.800 
18:15	51.7	51.7	51.7	87	48.0	0	2	338	0.00	29.809 
18:20	51.7	51.7	51.7	87	48.0	0	2	338	0.00	29.809 
18:25	51.7	51.7	51.7	87	48.0	0	1	338	0.00	29.809 
18:30	51.7	51.7	51.7	87	48.0	0	2	338	0.00	29.820 
18:35	51.7	51.7	51.7	87	48.0	0	1	338	0.00	29.820 
18:40	51.6	51.6	51.6	87	47.9	0	2	338	0.00	29.820 
18:45	51.3	51.3	51.3	88	47.9	0	1	338	0.00	29.818 
18:50	51.0	51.0	51.0	88	47.6	0	2	338	0.00	29.818 
18:55	50.8	50.8	50.8	89	47.7	0	1	338	0.01	29.818 
19:00	50.8	50.8	50.8	89	47.7	0	1	338	0.00	29.826 
19:05	50.7	50.7	50.7	90	47.9	0	1	338	0.00	29.826 
19:10	50.5	50.5	50.5	90	47.7	0	1	338	0.00	29.826 
19:15	50.5	50.5	50.5	90	47.7	0	1	338	0.00	29.841 
19:20	50.5	50.5	50.5	91	48.0	0	1	338	0.00	29.841 
19:25	50.4	50.4	50.4	91	47.9	0	1	338	0.00	29.841 
19:30	50.4	50.4	50.4	91	47.9	0	1	338	0.00	29.825 
19:35	50.4	50.4	50.4	91	47.9	0	1	338	0.00	29.825 
19:40	50.2	50.2	50.2	91	47.7	0	0	---	0.00	29.825 
19:45	50.2	50.2	50.2	91	47.7	0	1	338	0.00	29.836 
19:50	50.2	50.2	50.2	92	48.0	0	1	338	0.00	29.836 
19:55	50.1	50.1	50.1	92	47.9	0	1	338	0.00	29.836 
20:00	50.1	50.1	50.1	92	47.9	0	1	338	0.00	29.841 
20:05	50.1	50.1	50.1	92	47.9	0	1	338	0.00	29.841 
20:10	50.1	50.1	50.1	92	47.9	0	1	338	0.00	29.841 
20:15	49.9	49.9	49.9	92	47.7	0	1	338	0.00	29.846 
20:20	49.9	49.9	49.9	92	47.7	0	3	338	0.01	29.846 
20:25	49.9	49.9	49.9	92	47.7	0	1	338	0.00	29.846 
20:30	49.8	49.8	49.8	92	47.6	0	0	---	0.00	29.847 
20:35	49.8	49.8	49.8	92	47.6	0	1	338	0.00	29.847 
20:40	49.8	49.8	49.8	92	47.6	0	1	338	0.01	29.847 
20:45	49.6	49.6	49.6	92	47.4	0	0	---	0.00	29.840 
20:50	49.6	49.6	49.6	92	47.4	0	0	---	0.00	29.840 
20:55	49.6	49.6	49.6	92	47.4	0	1	338	0.00	29.840 
21:00	49.5	49.5	49.5	92	47.3	0	3	90	0.00	29.841 
21:05	49.4	49.4	49.4	92	47.2	0	1	90	0.00	29.841 
21:10	49.2	49.2	49.2	92	47.0	0	2	90	0.00	29.841 
21:15	48.9	48.9	48.9	92	46.7	0	2	68	0.00	29.847 
21:20	48.8	48.8	48.8	92	46.6	0	2	68	0.00	29.847 
21:25	48.6	48.6	48.6	92	46.4	0	2	68	0.00	29.847 
21:30	48.6	48.6	48.6	92	46.4	0	2	68	0.00	29.850 
21:35	48.5	48.5	48.5	92	46.3	0	2	68	0.00	29.850 
21:40	48.5	48.5	48.5	92	46.3	0	1	68	0.00	29.850 
21:45	48.5	48.5	48.5	92	46.3	0	1	68	0.00	29.855 
21:50	48.5	48.5	48.5	92	46.3	0	1	68	0.00	29.855 
21:55	48.5	48.5	48.5	92	46.3	0	3	270	0.00	29.855 
22:00	48.5	48.5	48.5	92	46.3	0	3	270	0.00	29.857 
22:05	48.3	48.3	48.3	92	46.1	0	1	292	0.00	29.857 
22:10	48.3	48.3	48.3	92	46.1	0	0	---	0.00	29.857 
22:15	48.3	48.3	48.3	92	46.1	0	2	270	0.00	29.854 
22:20	48.2	48.2	48.2	92	46.0	0	1	270	0.00	29.854 
22:25	48.2	48.2	48.2	92	46.0	0	2	270	0.00	29.854 
22:30	48.2	48.2	48.2	92	46.0	0	1	270	0.00	29.854 
22:35	48.0	48.0	48.0	92	45.8	0	1	270	0.00	29.854 
22:40	48.0	48.0	48.0	92	45.8	0	1	270	0.00	29.854 
22:45	48.0	48.0	48.0	92	45.8	0	1	270	0.00	29.868 
22:50	48.0	48.0	48.0	92	45.8	0	1	270	0.00	29.868 
22:55	48.0	48.0	48.0	92	45.8	0	1	270	0.00	29.868 
23:00	48.0	48.0	48.0	92	45.8	0	1	270	0.00	29.869 
23:05	47.9	47.9	47.9	92	45.7	0	1	270	0.00	29.869 
23:10	47.9	47.9	47.9	92	45.7	0	1	270	0.00	29.869 
23:15	47.9	47.9	47.9	92	45.7	0	0	---	0.00	29.854 
23:20	47.7	47.7	47.7	92	45.5	0	1	270	0.00	29.854 
23:25	47.7	47.7	47.7	92	45.5	0	2	270	0.00	29.854 
23:30	47.7	47.7	47.7	92	45.5	0	2	270	0.00	29.860 
23:35	47.7	47.7	47.7	92	45.5	0	2	270	0.00	29.860 
23:40	47.7	47.7	47.7	92	45.5	0	1	270	0.00	29.860 
23:45	47.6	47.6	47.6	92	45.4	0	2	270	0.00	29.852 
23:50	47.6	47.6	47.6	92	45.4	0	1	270	0.00	29.852 
23:55	47.6	47.6	47.6	92	45.4	0	1	270	0.00	29.852 

CoCoRaHS
IN-AL-39
A2 Web Hosting
Creative Commons License
GoDaddy
search engine by freefind advanced

loaded 2018-11-17 18:49:04 • last modified 2010-11-18 10:43:29
Privacy PolicyDisclaimer
• wx.awcolley.com is powered by PmWiki v.2002016 •
• all content (unless otherwise noted) © 2018 A W Colley